sensor_id;sensor_type;location;lat;lon;timestamp;pressure;altitude;pressure_sealevel;temperature;humidity
77725;BME280;66892;53.236;6.550;2023-07-24T00:00:59;100359.66;;;15.79;98.35
77725;BME280;66892;53.236;6.550;2023-07-24T00:03:25;100367.03;;;15.71;98.96
77725;BME280;66892;53.236;6.550;2023-07-24T00:05:51;100364.47;;;15.68;99.37
77725;BME280;66892;53.236;6.550;2023-07-24T00:08:18;100363.47;;;15.70;99.71
77725;BME280;66892;53.236;6.550;2023-07-24T00:10:44;100361.84;;;15.66;100.00
77725;BME280;66892;53.236;6.550;2023-07-24T00:13:11;100361.78;;;15.68;100.00
77725;BME280;66892;53.236;6.550;2023-07-24T00:15:38;100354.47;;;15.74;100.00
77725;BME280;66892;53.236;6.550;2023-07-24T00:18:04;100358.78;;;15.78;100.00
77725;BME280;66892;53.236;6.550;2023-07-24T00:20:30;100366.00;;;15.75;100.00
77725;BME280;66892;53.236;6.550;2023-07-24T00:22:56;100368.09;;;15.65;100.00
77725;BME280;66892;53.236;6.550;2023-07-24T00:25:24;100368.81;;;15.70;100.00
77725;BME280;66892;53.236;6.550;2023-07-24T00:27:50;100354.69;;;15.67;100.00
77725;BME280;66892;53.236;6.550;2023-07-24T00:30:16;100355.59;;;15.67;100.00
77725;BME280;66892;53.236;6.550;2023-07-24T00:32:42;100357.56;;;15.61;100.00
77725;BME280;66892;53.236;6.550;2023-07-24T00:35:08;100342.63;;;15.57;100.00
77725;BME280;66892;53.236;6.550;2023-07-24T00:37:34;100360.50;;;15.53;100.00
77725;BME280;66892;53.236;6.550;2023-07-24T00:40:01;100354.31;;;15.51;100.00
77725;BME280;66892;53.236;6.550;2023-07-24T00:42:28;100347.28;;;15.49;100.00
77725;BME280;66892;53.236;6.550;2023-07-24T00:44:55;100357.31;;;15.41;100.00
77725;BME280;66892;53.236;6.550;2023-07-24T00:47:21;100357.41;;;15.38;100.00
77725;BME280;66892;53.236;6.550;2023-07-24T00:49:48;100359.09;;;15.40;100.00
77725;BME280;66892;53.236;6.550;2023-07-24T00:52:14;100360.88;;;15.40;100.00
77725;BME280;66892;53.236;6.550;2023-07-24T00:54:41;100364.53;;;15.36;100.00
77725;BME280;66892;53.236;6.550;2023-07-24T00:57:09;100361.97;;;15.32;100.00
77725;BME280;66892;53.236;6.550;2023-07-24T00:59:37;100355.84;;;15.30;100.00
77725;BME280;66892;53.236;6.550;2023-07-24T01:02:03;100363.84;;;15.29;100.00
77725;BME280;66892;53.236;6.550;2023-07-24T01:04:29;100356.97;;;15.22;100.00
77725;BME280;66892;53.236;6.550;2023-07-24T01:06:56;100351.78;;;15.17;100.00
77725;BME280;66892;53.236;6.550;2023-07-24T01:09:22;100363.44;;;15.13;100.00
77725;BME280;66892;53.236;6.550;2023-07-24T01:11:50;100348.31;;;15.15;100.00
77725;BME280;66892;53.236;6.550;2023-07-24T01:14:21;100346.66;;;15.11;100.00
77725;BME280;66892;53.236;6.550;2023-07-24T01:16:53;100346.66;;;15.11;100.00
77725;BME280;66892;53.236;6.550;2023-07-24T01:19:32;100342.22;;;15.10;100.00
77725;BME280;66892;53.236;6.550;2023-07-24T01:22:03;100335.06;;;15.12;100.00
77725;BME280;66892;53.236;6.550;2023-07-24T01:24:39;100326.31;;;15.09;100.00
77725;BME280;66892;53.236;6.550;2023-07-24T01:27:19;100326.47;;;15.03;100.00
77725;BME280;66892;53.236;6.550;2023-07-24T01:29:46;100323.69;;;15.07;100.00
77725;BME280;66892;53.236;6.550;2023-07-24T01:32:12;100327.34;;;15.03;100.00
77725;BME280;66892;53.236;6.550;2023-07-24T01:34:38;100326.53;;;15.01;100.00
77725;BME280;66892;53.236;6.550;2023-07-24T01:37:04;100328.41;;;14.98;100.00
77725;BME280;66892;53.236;6.550;2023-07-24T01:39:30;100321.38;;;14.95;100.00
77725;BME280;66892;53.236;6.550;2023-07-24T01:41:56;100325.88;;;14.93;100.00
77725;BME280;66892;53.236;6.550;2023-07-24T01:44:24;100330.28;;;14.94;100.00
77725;BME280;66892;53.236;6.550;2023-07-24T01:46:51;100329.59;;;14.88;100.00
77725;BME280;66892;53.236;6.550;2023-07-24T01:49:17;100323.53;;;14.83;100.00
77725;BME280;66892;53.236;6.550;2023-07-24T01:51:43;100319.03;;;14.85;100.00
77725;BME280;66892;53.236;6.550;2023-07-24T01:54:11;100313.69;;;14.86;100.00
77725;BME280;66892;53.236;6.550;2023-07-24T01:56:37;100318.75;;;14.94;100.00
77725;BME280;66892;53.236;6.550;2023-07-24T01:59:05;100319.84;;;15.16;100.00
77725;BME280;66892;53.236;6.550;2023-07-24T02:01:33;100307.72;;;15.35;100.00
77725;BME280;66892;53.236;6.550;2023-07-24T02:03:59;100310.88;;;15.49;100.00
77725;BME280;66892;53.236;6.550;2023-07-24T02:06:25;100307.00;;;15.59;100.00
77725;BME280;66892;53.236;6.550;2023-07-24T02:08:51;100301.41;;;15.67;100.00
77725;BME280;66892;53.236;6.550;2023-07-24T02:11:17;100303.91;;;15.71;100.00
77725;BME280;66892;53.236;6.550;2023-07-24T02:13:44;100305.50;;;15.77;100.00
77725;BME280;66892;53.236;6.550;2023-07-24T02:16:10;100309.81;;;15.81;100.00
77725;BME280;66892;53.236;6.550;2023-07-24T02:18:38;100298.16;;;15.85;100.00
77725;BME280;66892;53.236;6.550;2023-07-24T02:21:04;100307.81;;;15.88;100.00
77725;BME280;66892;53.236;6.550;2023-07-24T02:23:31;100301.06;;;15.77;100.00
77725;BME280;66892;53.236;6.550;2023-07-24T02:25:57;100303.31;;;15.63;100.00
77725;BME280;66892;53.236;6.550;2023-07-24T02:28:23;100299.09;;;15.56;100.00
77725;BME280;66892;53.236;6.550;2023-07-24T02:30:49;100294.00;;;15.49;100.00
77725;BME280;66892;53.236;6.550;2023-07-24T02:33:17;100299.59;;;15.40;100.00
77725;BME280;66892;53.236;6.550;2023-07-24T02:35:44;100291.06;;;15.28;100.00
77725;BME280;66892;53.236;6.550;2023-07-24T02:38:10;100294.00;;;15.19;100.00
77725;BME280;66892;53.236;6.550;2023-07-24T02:40:36;100287.88;;;15.17;100.00
77725;BME280;66892;53.236;6.550;2023-07-24T02:43:03;100293.38;;;15.11;100.00
77725;BME280;66892;53.236;6.550;2023-07-24T02:45:29;100293.50;;;15.07;100.00
77725;BME280;66892;53.236;6.550;2023-07-24T02:47:55;100288.06;;;15.11;100.00
77725;BME280;66892;53.236;6.550;2023-07-24T02:50:21;100289.63;;;15.18;100.00
77725;BME280;66892;53.236;6.550;2023-07-24T02:52:48;100292.47;;;15.40;100.00
77725;BME280;66892;53.236;6.550;2023-07-24T02:55:14;100285.88;;;15.53;100.00
77725;BME280;66892;53.236;6.550;2023-07-24T02:57:40;100287.25;;;15.65;100.00
77725;BME280;66892;53.236;6.550;2023-07-24T03:00:07;100298.38;;;15.77;100.00
77725;BME280;66892;53.236;6.550;2023-07-24T03:02:34;100304.47;;;15.82;100.00
77725;BME280;66892;53.236;6.550;2023-07-24T03:05:00;100299.72;;;15.91;100.00
77725;BME280;66892;53.236;6.550;2023-07-24T03:07:26;100301.31;;;15.96;100.00
77725;BME280;66892;53.236;6.550;2023-07-24T03:09:53;100287.75;;;16.02;100.00
77725;BME280;66892;53.236;6.550;2023-07-24T03:12:19;100279.75;;;16.02;100.00
77725;BME280;66892;53.236;6.550;2023-07-24T03:14:46;100277.84;;;16.06;100.00
77725;BME280;66892;53.236;6.550;2023-07-24T03:17:12;100289.38;;;16.08;100.00
77725;BME280;66892;53.236;6.550;2023-07-24T03:19:40;100291.84;;;16.12;100.00
77725;BME280;66892;53.236;6.550;2023-07-24T03:22:06;100297.91;;;16.17;100.00
77725;BME280;66892;53.236;6.550;2023-07-24T03:24:33;100297.84;;;16.19;100.00
77725;BME280;66892;53.236;6.550;2023-07-24T03:27:00;100293.38;;;16.19;100.00
77725;BME280;66892;53.236;6.550;2023-07-24T03:29:26;100283.47;;;16.23;100.00
77725;BME280;66892;53.236;6.550;2023-07-24T03:31:53;100282.56;;;16.24;100.00
77725;BME280;66892;53.236;6.550;2023-07-24T03:34:19;100289.50;;;16.28;100.00
77725;BME280;66892;53.236;6.550;2023-07-24T03:36:45;100305.38;;;16.32;100.00
77725;BME280;66892;53.236;6.550;2023-07-24T03:39:11;100295.47;;;16.36;100.00
77725;BME280;66892;53.236;6.550;2023-07-24T03:41:38;100288.22;;;16.40;100.00
77725;BME280;66892;53.236;6.550;2023-07-24T03:44:05;100282.78;;;16.43;100.00
77725;BME280;66892;53.236;6.550;2023-07-24T03:46:31;100289.91;;;16.42;100.00
77725;BME280;66892;53.236;6.550;2023-07-24T03:48:58;100282.72;;;16.44;100.00
77725;BME280;66892;53.236;6.550;2023-07-24T03:51:24;100278.22;;;16.46;100.00
77725;BME280;66892;53.236;6.550;2023-07-24T03:53:50;100277.25;;;16.47;100.00
77725;BME280;66892;53.236;6.550;2023-07-24T03:56:16;100287.00;;;16.48;100.00
77725;BME280;66892;53.236;6.550;2023-07-24T03:58:42;100288.69;;;16.51;100.00
77725;BME280;66892;53.236;6.550;2023-07-24T04:01:10;100286.91;;;16.51;100.00
77725;BME280;66892;53.236;6.550;2023-07-24T04:03:36;100294.00;;;16.52;100.00
77725;BME280;66892;53.236;6.550;2023-07-24T04:06:02;100280.56;;;16.55;100.00
77725;BME280;66892;53.236;6.550;2023-07-24T04:08:28;100281.38;;;16.57;100.00
77725;BME280;66892;53.236;6.550;2023-07-24T04:10:54;100286.72;;;16.57;100.00
77725;BME280;66892;53.236;6.550;2023-07-24T04:13:22;100282.22;;;16.59;100.00
77725;BME280;66892;53.236;6.550;2023-07-24T04:15:48;100284.81;;;16.61;100.00
77725;BME280;66892;53.236;6.550;2023-07-24T04:18:15;100280.34;;;16.61;100.00
77725;BME280;66892;53.236;6.550;2023-07-24T04:20:41;100272.34;;;16.61;100.00
77725;BME280;66892;53.236;6.550;2023-07-24T04:23:07;100271.41;;;16.62;100.00
77725;BME280;66892;53.236;6.550;2023-07-24T04:25:34;100283.88;;;16.62;100.00
77725;BME280;66892;53.236;6.550;2023-07-24T04:28:00;100276.75;;;16.62;100.00
77725;BME280;66892;53.236;6.550;2023-07-24T04:30:26;100267.88;;;16.62;100.00
77725;BME280;66892;53.236;6.550;2023-07-24T04:32:52;100271.31;;;16.65;100.00
77725;BME280;66892;53.236;6.550;2023-07-24T04:35:19;100271.22;;;16.67;100.00
77725;BME280;66892;53.236;6.550;2023-07-24T04:37:46;100257.94;;;16.65;100.00
77725;BME280;66892;53.236;6.550;2023-07-24T04:40:12;100253.53;;;16.64;100.00
77725;BME280;66892;53.236;6.550;2023-07-24T04:42:38;100273.97;;;16.65;100.00
77725;BME280;66892;53.236;6.550;2023-07-24T04:45:05;100266.88;;;16.64;100.00
77725;BME280;66892;53.236;6.550;2023-07-24T04:47:31;100264.16;;;16.66;100.00
77725;BME280;66892;53.236;6.550;2023-07-24T04:49:57;100264.16;;;16.66;100.00
77725;BME280;66892;53.236;6.550;2023-07-24T04:52:25;100260.53;;;16.67;100.00
77725;BME280;66892;53.236;6.550;2023-07-24T04:54:51;100264.94;;;16.69;100.00
77725;BME280;66892;53.236;6.550;2023-07-24T04:57:17;100267.59;;;16.69;100.00
77725;BME280;66892;53.236;6.550;2023-07-24T04:59:43;100269.31;;;16.70;100.00
77725;BME280;66892;53.236;6.550;2023-07-24T05:02:09;100278.03;;;16.75;100.00
77725;BME280;66892;53.236;6.550;2023-07-24T05:04:35;100269.16;;;16.75;100.00
77725;BME280;66892;53.236;6.550;2023-07-24T05:07:01;100268.16;;;16.77;100.00
77725;BME280;66892;53.236;6.550;2023-07-24T05:09:28;100242.13;;;16.82;100.00
77725;BME280;66892;53.236;6.550;2023-07-24T05:11:55;100249.25;;;16.83;100.00
77725;BME280;66892;53.236;6.550;2023-07-24T05:14:21;100261.66;;;16.84;100.00
77725;BME280;66892;53.236;6.550;2023-07-24T05:16:47;100243.66;;;16.90;100.00
77725;BME280;66892;53.236;6.550;2023-07-24T05:19:13;100239.16;;;16.92;100.00
77725;BME280;66892;53.236;6.550;2023-07-24T05:21:39;100244.38;;;16.95;100.00
77725;BME280;66892;53.236;6.550;2023-07-24T05:24:05;100230.13;;;16.94;100.00
77725;BME280;66892;53.236;6.550;2023-07-24T05:26:32;100236.22;;;16.98;100.00
77725;BME280;66892;53.236;6.550;2023-07-24T05:28:58;100243.16;;;17.02;100.00
77725;BME280;66892;53.236;6.550;2023-07-24T05:31:24;100243.88;;;17.07;100.00
77725;BME280;66892;53.236;6.550;2023-07-24T05:33:50;100253.53;;;17.11;100.00
77725;BME280;66892;53.236;6.550;2023-07-24T05:36:17;100250.66;;;17.15;100.00
77725;BME280;66892;53.236;6.550;2023-07-24T05:38:43;100247.84;;;17.18;100.00
77725;BME280;66892;53.236;6.550;2023-07-24T05:41:09;100240.47;;;17.25;100.00
77725;BME280;66892;53.236;6.550;2023-07-24T05:43:36;100248.44;;;17.26;100.00
77725;BME280;66892;53.236;6.550;2023-07-24T05:46:02;100248.38;;;17.28;100.00
77725;BME280;66892;53.236;6.550;2023-07-24T05:48:28;100254.53;;;17.30;99.70
77725;BME280;66892;53.236;6.550;2023-07-24T05:50:54;100244.09;;;17.24;99.70
77725;BME280;66892;53.236;6.550;2023-07-24T05:53:20;100248.56;;;17.23;99.69
77725;BME280;66892;53.236;6.550;2023-07-24T05:55:46;100257.38;;;17.25;100.00
77725;BME280;66892;53.236;6.550;2023-07-24T05:58:13;100247.59;;;17.24;100.00
77725;BME280;66892;53.236;6.550;2023-07-24T06:00:41;100259.13;;;17.26;99.82
77725;BME280;66892;53.236;6.550;2023-07-24T06:03:07;100246.81;;;17.22;99.83
77725;BME280;66892;53.236;6.550;2023-07-24T06:05:33;100246.00;;;17.20;99.82
77725;BME280;66892;53.236;6.550;2023-07-24T06:07:59;100257.63;;;17.19;99.96
77725;BME280;66892;53.236;6.550;2023-07-24T06:10:25;100249.59;;;17.19;99.66
77725;BME280;66892;53.236;6.550;2023-07-24T06:12:51;100257.50;;;17.22;99.96
77725;BME280;66892;53.236;6.550;2023-07-24T06:15:18;100260.75;;;17.30;99.80
77725;BME280;66892;53.236;6.550;2023-07-24T06:17:45;100257.50;;;17.44;99.38
77725;BME280;66892;53.236;6.550;2023-07-24T06:20:11;100249.09;;;17.53;98.94
77725;BME280;66892;53.236;6.550;2023-07-24T06:22:37;100246.28;;;17.58;98.05
77725;BME280;66892;53.236;6.550;2023-07-24T06:25:04;100253.13;;;17.65;97.73
77725;BME280;66892;53.236;6.550;2023-07-24T06:27:30;100249.94;;;17.77;97.36
77725;BME280;66892;53.236;6.550;2023-07-24T06:29:56;100246.00;;;17.85;97.09
77725;BME280;66892;53.236;6.550;2023-07-24T06:32:22;100252.69;;;17.96;96.44
77725;BME280;66892;53.236;6.550;2023-07-24T06:34:50;100247.22;;;17.99;95.33
77725;BME280;66892;53.236;6.550;2023-07-24T06:37:16;100249.69;;;18.03;95.51
77725;BME280;66892;53.236;6.550;2023-07-24T06:39:42;100243.16;;;18.10;94.83
77725;BME280;66892;53.236;6.550;2023-07-24T06:42:11;100254.59;;;18.14;94.39
77725;BME280;66892;53.236;6.550;2023-07-24T06:44:37;100253.63;;;18.15;94.52
77725;BME280;66892;53.236;6.550;2023-07-24T06:47:03;100258.94;;;18.16;93.96
77725;BME280;66892;53.236;6.550;2023-07-24T06:49:30;100255.31;;;18.17;94.57
77725;BME280;66892;53.236;6.550;2023-07-24T06:51:57;100256.25;;;18.16;94.33
77725;BME280;66892;53.236;6.550;2023-07-24T06:54:23;100251.78;;;18.17;94.53
77725;BME280;66892;53.236;6.550;2023-07-24T06:56:49;100253.38;;;18.21;94.38
77725;BME280;66892;53.236;6.550;2023-07-24T06:59:15;100251.28;;;18.27;94.15
77725;BME280;66892;53.236;6.550;2023-07-24T07:01:41;100254.50;;;18.35;93.54
77725;BME280;66892;53.236;6.550;2023-07-24T07:04:07;100248.59;;;18.48;93.12
77725;BME280;66892;53.236;6.550;2023-07-24T07:06:33;100253.22;;;18.44;91.99
77725;BME280;66892;53.236;6.550;2023-07-24T07:09:01;100250.16;;;18.53;92.05
77725;BME280;66892;53.236;6.550;2023-07-24T07:11:27;100256.56;;;18.69;91.68
77725;BME280;66892;53.236;6.550;2023-07-24T07:13:53;100260.28;;;18.85;90.80
77725;BME280;66892;53.236;6.550;2023-07-24T07:16:19;100252.03;;;18.90;89.51
77725;BME280;66892;53.236;6.550;2023-07-24T07:18:45;100246.09;;;19.02;88.71
77725;BME280;66892;53.236;6.550;2023-07-24T07:21:11;100250.88;;;19.14;88.40
77725;BME280;66892;53.236;6.550;2023-07-24T07:23:37;100243.63;;;19.16;88.74
77725;BME280;66892;53.236;6.550;2023-07-24T07:26:04;100255.72;;;19.25;88.84
77725;BME280;66892;53.236;6.550;2023-07-24T07:28:30;100247.75;;;19.23;88.07
77725;BME280;66892;53.236;6.550;2023-07-24T07:30:56;100251.28;;;19.24;88.37
77725;BME280;66892;53.236;6.550;2023-07-24T07:33:23;100250.22;;;19.28;88.25
77725;BME280;66892;53.236;6.550;2023-07-24T07:35:50;100251.13;;;19.27;87.00
77725;BME280;66892;53.236;6.550;2023-07-24T07:38:16;100245.00;;;19.25;87.70
77725;BME280;66892;53.236;6.550;2023-07-24T07:40:42;100241.28;;;19.27;87.71
77725;BME280;66892;53.236;6.550;2023-07-24T07:43:10;100234.53;;;19.37;87.99
77725;BME280;66892;53.236;6.550;2023-07-24T07:45:36;100235.31;;;19.39;87.30
77725;BME280;66892;53.236;6.550;2023-07-24T07:48:03;100239.19;;;19.53;87.28
77725;BME280;66892;53.236;6.550;2023-07-24T07:50:29;100237.94;;;19.60;86.40
77725;BME280;66892;53.236;6.550;2023-07-24T07:52:55;100243.81;;;19.68;86.29
77725;BME280;66892;53.236;6.550;2023-07-24T07:55:21;100225.72;;;19.88;85.93
77725;BME280;66892;53.236;6.550;2023-07-24T07:57:47;100229.22;;;20.08;85.32
77725;BME280;66892;53.236;6.550;2023-07-24T08:00:15;100231.00;;;20.24;84.26
77725;BME280;66892;53.236;6.550;2023-07-24T08:02:42;100227.53;;;20.39;83.33
77725;BME280;66892;53.236;6.550;2023-07-24T08:05:11;100226.66;;;20.56;81.55
77725;BME280;66892;53.236;6.550;2023-07-24T08:07:37;100229.97;;;20.61;80.69
77725;BME280;66892;53.236;6.550;2023-07-24T08:10:04;100228.22;;;20.60;81.29
77725;BME280;66892;53.236;6.550;2023-07-24T08:12:33;100222.34;;;20.69;80.93
77725;BME280;66892;53.236;6.550;2023-07-24T08:14:59;100234.31;;;20.79;79.93
77725;BME280;66892;53.236;6.550;2023-07-24T08:17:27;100223.06;;;20.88;79.88
77725;BME280;66892;53.236;6.550;2023-07-24T08:19:53;100235.91;;;20.99;79.21
77725;BME280;66892;53.236;6.550;2023-07-24T08:22:19;100233.75;;;21.06;78.75
77725;BME280;66892;53.236;6.550;2023-07-24T08:24:45;100229.84;;;20.95;78.71
77725;BME280;66892;53.236;6.550;2023-07-24T08:27:12;100231.72;;;20.93;78.56
77725;BME280;66892;53.236;6.550;2023-07-24T08:29:38;100226.34;;;20.93;79.23
77725;BME280;66892;53.236;6.550;2023-07-24T08:32:05;100231.91;;;20.90;78.61
77725;BME280;66892;53.236;6.550;2023-07-24T08:34:32;100233.66;;;20.91;78.69
77725;BME280;66892;53.236;6.550;2023-07-24T08:36:58;100228.97;;;20.79;79.17
77725;BME280;66892;53.236;6.550;2023-07-24T08:39:24;100226.44;;;20.76;79.57
77725;BME280;66892;53.236;6.550;2023-07-24T08:41:50;100222.28;;;20.71;79.60
77725;BME280;66892;53.236;6.550;2023-07-24T08:44:17;100221.56;;;20.67;79.63
77725;BME280;66892;53.236;6.550;2023-07-24T08:46:44;100225.53;;;20.60;80.09
77725;BME280;66892;53.236;6.550;2023-07-24T08:49:12;100213.47;;;20.52;80.11
77725;BME280;66892;53.236;6.550;2023-07-24T08:51:43;100215.47;;;20.48;80.31
77725;BME280;66892;53.236;6.550;2023-07-24T08:54:10;100210.31;;;20.43;80.16
77725;BME280;66892;53.236;6.550;2023-07-24T08:56:37;100214.50;;;20.49;80.79
77725;BME280;66892;53.236;6.550;2023-07-24T08:59:07;100220.16;;;20.60;79.78
77725;BME280;66892;53.236;6.550;2023-07-24T09:01:33;100213.41;;;20.69;78.58
77725;BME280;66892;53.236;6.550;2023-07-24T09:03:59;100218.72;;;20.86;77.80
77725;BME280;66892;53.236;6.550;2023-07-24T09:06:26;100218.28;;;20.93;77.80
77725;BME280;66892;53.236;6.550;2023-07-24T09:08:54;100224.28;;;20.98;77.78
77725;BME280;66892;53.236;6.550;2023-07-24T09:11:21;100217.00;;;21.00;76.80
77725;BME280;66892;53.236;6.550;2023-07-24T09:13:47;100218.22;;;20.95;77.23
77725;BME280;66892;53.236;6.550;2023-07-24T09:16:23;100218.41;;;21.08;77.05
77725;BME280;66892;53.236;6.550;2023-07-24T09:18:49;100223.28;;;21.17;76.48
77725;BME280;66892;53.236;6.550;2023-07-24T09:21:27;100216.84;;;21.19;76.49
77725;BME280;66892;53.236;6.550;2023-07-24T09:23:54;100196.63;;;21.43;76.03
77725;BME280;66892;53.236;6.550;2023-07-24T09:26:20;100200.13;;;21.91;73.01
77725;BME280;66892;53.236;6.550;2023-07-24T09:28:51;100208.44;;;22.16;72.36
77725;BME280;66892;53.236;6.550;2023-07-24T09:31:17;100205.31;;;22.52;71.58
77725;BME280;66892;53.236;6.550;2023-07-24T09:33:44;100196.69;;;22.75;71.28
77725;BME280;66892;53.236;6.550;2023-07-24T09:36:10;100199.25;;;23.32;67.34
77725;BME280;66892;53.236;6.550;2023-07-24T09:38:36;100188.91;;;23.38;66.19
77725;BME280;66892;53.236;6.550;2023-07-24T09:41:05;100195.94;;;23.55;67.44
77725;BME280;66892;53.236;6.550;2023-07-24T09:43:32;100201.41;;;23.80;66.08
77725;BME280;66892;53.236;6.550;2023-07-24T09:45:58;100198.22;;;24.00;65.33
77725;BME280;66892;53.236;6.550;2023-07-24T09:48:26;100197.41;;;24.12;63.32
77725;BME280;66892;53.236;6.550;2023-07-24T09:50:53;100197.41;;;24.12;62.71
77725;BME280;66892;53.236;6.550;2023-07-24T09:53:22;100197.72;;;24.71;62.53
77725;BME280;66892;53.236;6.550;2023-07-24T09:55:55;100202.81;;;24.63;61.04
77725;BME280;66892;53.236;6.550;2023-07-24T09:58:23;100210.16;;;24.23;62.45
77725;BME280;66892;53.236;6.550;2023-07-24T10:00:50;100195.72;;;25.24;58.16
77725;BME280;66892;53.236;6.550;2023-07-24T10:03:17;100186.22;;;26.35;54.95
77725;BME280;66892;53.236;6.550;2023-07-24T10:05:44;100177.16;;;26.12;55.17
77725;BME280;66892;53.236;6.550;2023-07-24T10:08:10;100175.81;;;27.40;53.59
77725;BME280;66892;53.236;6.550;2023-07-24T10:10:38;100169.72;;;28.32;50.43
77725;BME280;66892;53.236;6.550;2023-07-24T10:13:04;100170.53;;;29.44;47.64
77725;BME280;66892;53.236;6.550;2023-07-24T10:15:32;100167.38;;;28.18;47.67
77725;BME280;66892;53.236;6.550;2023-07-24T10:18:03;100170.16;;;27.75;49.36
77725;BME280;66892;53.236;6.550;2023-07-24T10:20:33;100169.63;;;27.06;50.05
77725;BME280;66892;53.236;6.550;2023-07-24T10:23:01;100182.84;;;25.75;53.45
77725;BME280;66892;53.236;6.550;2023-07-24T10:25:29;100183.94;;;26.07;54.31
77725;BME280;66892;53.236;6.550;2023-07-24T10:28:01;100172.28;;;27.71;50.75
77725;BME280;66892;53.236;6.550;2023-07-24T10:30:28;100161.69;;;29.21;46.63
77725;BME280;66892;53.236;6.550;2023-07-24T10:33:07;100160.34;;;30.04;43.90
77725;BME280;66892;53.236;6.550;2023-07-24T10:35:38;100162.75;;;30.26;44.55
77725;BME280;66892;53.236;6.550;2023-07-24T10:38:05;100165.31;;;29.41;45.03
77725;BME280;66892;53.236;6.550;2023-07-24T10:40:32;100173.97;;;28.04;47.88
77725;BME280;66892;53.236;6.550;2023-07-24T10:43:00;100176.66;;;26.87;51.51
77725;BME280;66892;53.236;6.550;2023-07-24T10:45:26;100170.66;;;25.80;55.91
77725;BME280;66892;53.236;6.550;2023-07-24T10:47:52;100172.63;;;24.94;58.71
77725;BME280;66892;53.236;6.550;2023-07-24T10:50:21;100176.88;;;24.23;60.98
77725;BME280;66892;53.236;6.550;2023-07-24T10:52:47;100184.44;;;23.66;62.44
77725;BME280;66892;53.236;6.550;2023-07-24T10:55:13;100183.81;;;23.07;65.20
77725;BME280;66892;53.236;6.550;2023-07-24T10:57:39;100183.47;;;22.56;67.25
77725;BME280;66892;53.236;6.550;2023-07-24T11:00:06;100182.56;;;22.14;69.63
77725;BME280;66892;53.236;6.550;2023-07-24T11:02:33;100181.22;;;21.77;71.36
77725;BME280;66892;53.236;6.550;2023-07-24T11:04:59;100178.47;;;21.63;72.54
77725;BME280;66892;53.236;6.550;2023-07-24T11:07:32;100181.75;;;21.38;71.35
77725;BME280;66892;53.236;6.550;2023-07-24T11:09:59;100169.84;;;21.26;72.44
77725;BME280;66892;53.236;6.550;2023-07-24T11:12:25;100181.69;;;21.53;72.38
77725;BME280;66892;53.236;6.550;2023-07-24T11:14:56;100182.06;;;21.77;71.97
77725;BME280;66892;53.236;6.550;2023-07-24T11:17:33;100195.69;;;21.74;72.20
77725;BME280;66892;53.236;6.550;2023-07-24T11:20:08;100199.88;;;21.64;72.48
77725;BME280;66892;53.236;6.550;2023-07-24T11:22:38;100196.38;;;21.48;74.22
77725;BME280;66892;53.236;6.550;2023-07-24T11:25:04;100198.81;;;20.90;78.80
77725;BME280;66892;53.236;6.550;2023-07-24T11:27:31;100193.22;;;20.29;82.76
77725;BME280;66892;53.236;6.550;2023-07-24T11:29:58;100194.25;;;20.09;84.60
77725;BME280;66892;53.236;6.550;2023-07-24T11:32:24;100186.75;;;20.48;85.89
77725;BME280;66892;53.236;6.550;2023-07-24T11:34:51;100181.97;;;20.86;84.67
77725;BME280;66892;53.236;6.550;2023-07-24T11:37:17;100179.88;;;20.91;84.43
77725;BME280;66892;53.236;6.550;2023-07-24T11:39:56;100174.38;;;21.10;82.11
77725;BME280;66892;53.236;6.550;2023-07-24T11:42:24;100172.19;;;21.48;81.08
77725;BME280;66892;53.236;6.550;2023-07-24T11:44:51;100169.63;;;21.45;79.79
77725;BME280;66892;53.236;6.550;2023-07-24T11:47:17;100167.53;;;21.95;79.26
77725;BME280;66892;53.236;6.550;2023-07-24T11:49:43;100167.31;;;22.56;77.80
77725;BME280;66892;53.236;6.550;2023-07-24T11:52:14;100161.22;;;22.95;74.35
77725;BME280;66892;53.236;6.550;2023-07-24T11:54:40;100162.84;;;23.25;72.71
77725;BME280;66892;53.236;6.550;2023-07-24T11:57:15;100172.84;;;22.96;73.85
77725;BME280;66892;53.236;6.550;2023-07-24T11:59:42;100172.13;;;22.66;72.27
77725;BME280;66892;53.236;6.550;2023-07-24T12:02:09;100168.16;;;22.85;73.38
77725;BME280;66892;53.236;6.550;2023-07-24T12:04:36;100164.84;;;23.89;70.93
77725;BME280;66892;53.236;6.550;2023-07-24T12:07:07;100167.19;;;23.93;68.50
77725;BME280;66892;53.236;6.550;2023-07-24T12:09:33;100157.25;;;23.42;68.49
77725;BME280;66892;53.236;6.550;2023-07-24T12:12:03;100151.81;;;22.74;68.49
77725;BME280;66892;53.236;6.550;2023-07-24T12:14:31;100161.91;;;22.14;71.35
77725;BME280;66892;53.236;6.550;2023-07-24T12:17:01;100165.94;;;21.47;74.78
77725;BME280;66892;53.236;6.550;2023-07-24T12:19:27;100182.97;;;20.52;79.88
77725;BME280;66892;53.236;6.550;2023-07-24T12:21:53;100185.81;;;19.82;85.39
77725;BME280;66892;53.236;6.550;2023-07-24T12:24:19;100181.44;;;19.27;90.29
77725;BME280;66892;53.236;6.550;2023-07-24T12:26:46;100183.41;;;18.87;93.37
77725;BME280;66892;53.236;6.550;2023-07-24T12:29:12;100175.72;;;18.61;95.59
77725;BME280;66892;53.236;6.550;2023-07-24T12:31:39;100182.28;;;18.34;96.49
77725;BME280;66892;53.236;6.550;2023-07-24T12:34:05;100172.47;;;18.14;96.22
77725;BME280;66892;53.236;6.550;2023-07-24T12:36:31;100175.31;;;18.11;97.81
77725;BME280;66892;53.236;6.550;2023-07-24T12:38:57;100191.06;;;18.17;98.25
77725;BME280;66892;53.236;6.550;2023-07-24T12:41:23;100178.25;;;18.25;99.00
77725;BME280;66892;53.236;6.550;2023-07-24T12:43:49;100185.06;;;18.32;97.88